sensor_id;sensor_type;location;lat;lon;timestamp;temperature;humidity
32366;DHT22;18837;46.832;16.838;2023-01-15T00:00:34;6.90;97.40
32366;DHT22;18837;46.832;16.838;2023-01-15T00:03:00;6.90;97.40
32366;DHT22;18837;46.832;16.838;2023-01-15T00:05:35;6.90;97.60
32366;DHT22;18837;46.832;16.838;2023-01-15T00:08:01;6.90;97.60
32366;DHT22;18837;46.832;16.838;2023-01-15T00:10:27;6.80;98.10
32366;DHT22;18837;46.832;16.838;2023-01-15T00:12:53;6.80;97.60
32366;DHT22;18837;46.832;16.838;2023-01-15T00:15:18;6.80;97.60
32366;DHT22;18837;46.832;16.838;2023-01-15T00:17:44;6.80;97.80
32366;DHT22;18837;46.832;16.838;2023-01-15T00:20:10;6.80;97.70
32366;DHT22;18837;46.832;16.838;2023-01-15T00:22:58;6.80;97.80
32366;DHT22;18837;46.832;16.838;2023-01-15T00:25:36;6.80;97.90
32366;DHT22;18837;46.832;16.838;2023-01-15T00:28:20;6.80;98.00
32366;DHT22;18837;46.832;16.838;2023-01-15T00:30:46;6.80;97.80
32366;DHT22;18837;46.832;16.838;2023-01-15T00:33:11;6.70;98.00
32366;DHT22;18837;46.832;16.838;2023-01-15T00:35:37;6.70;97.80
32366;DHT22;18837;46.832;16.838;2023-01-15T00:38:03;6.70;97.90
32366;DHT22;18837;46.832;16.838;2023-01-15T00:40:34;6.70;97.90
32366;DHT22;18837;46.832;16.838;2023-01-15T00:42:59;6.70;97.90
32366;DHT22;18837;46.832;16.838;2023-01-15T00:45:25;6.80;97.90
32366;DHT22;18837;46.832;16.838;2023-01-15T00:47:51;6.80;97.80
32366;DHT22;18837;46.832;16.838;2023-01-15T00:50:16;6.80;97.50
32366;DHT22;18837;46.832;16.838;2023-01-15T00:52:42;6.90;97.30
32366;DHT22;18837;46.832;16.838;2023-01-15T00:55:17;6.90;97.30
32366;DHT22;18837;46.832;16.838;2023-01-15T00:58:08;6.90;97.40
32366;DHT22;18837;46.832;16.838;2023-01-15T01:00:57;6.90;97.80
32366;DHT22;18837;46.832;16.838;2023-01-15T01:03:23;6.80;97.70
32366;DHT22;18837;46.832;16.838;2023-01-15T01:05:49;6.80;97.60
32366;DHT22;18837;46.832;16.838;2023-01-15T01:08:15;6.80;97.60
32366;DHT22;18837;46.832;16.838;2023-01-15T01:10:41;6.80;97.60
32366;DHT22;18837;46.832;16.838;2023-01-15T01:13:07;6.80;97.70
32366;DHT22;18837;46.832;16.838;2023-01-15T01:15:38;6.80;97.90
32366;DHT22;18837;46.832;16.838;2023-01-15T01:18:04;6.70;97.80
32366;DHT22;18837;46.832;16.838;2023-01-15T01:20:31;6.70;97.70
32366;DHT22;18837;46.832;16.838;2023-01-15T01:22:57;6.70;97.70
32366;DHT22;18837;46.832;16.838;2023-01-15T01:25:23;6.70;98.00
32366;DHT22;18837;46.832;16.838;2023-01-15T01:27:49;6.70;98.00
32366;DHT22;18837;46.832;16.838;2023-01-15T01:30:33;6.70;97.90
32366;DHT22;18837;46.832;16.838;2023-01-15T01:33:11;6.70;97.80
32366;DHT22;18837;46.832;16.838;2023-01-15T01:35:49;6.70;97.80
32366;DHT22;18837;46.832;16.838;2023-01-15T01:38:15;6.70;97.90
32366;DHT22;18837;46.832;16.838;2023-01-15T01:40:41;6.70;98.00
32366;DHT22;18837;46.832;16.838;2023-01-15T01:43:25;6.70;97.90
32366;DHT22;18837;46.832;16.838;2023-01-15T01:45:51;6.70;98.10
32366;DHT22;18837;46.832;16.838;2023-01-15T01:48:20;6.80;97.80
32366;DHT22;18837;46.832;16.838;2023-01-15T01:50:56;6.80;97.60
32366;DHT22;18837;46.832;16.838;2023-01-15T01:53:27;6.80;97.40
32366;DHT22;18837;46.832;16.838;2023-01-15T01:55:54;6.80;97.30
32366;DHT22;18837;46.832;16.838;2023-01-15T01:58:22;6.80;97.30
32366;DHT22;18837;46.832;16.838;2023-01-15T02:00:49;6.80;97.40
32366;DHT22;18837;46.832;16.838;2023-01-15T02:03:17;6.80;97.60
32366;DHT22;18837;46.832;16.838;2023-01-15T02:09:06;6.80;98.00
32366;DHT22;18837;46.832;16.838;2023-01-15T02:11:32;6.70;97.70
32366;DHT22;18837;46.832;16.838;2023-01-15T02:16:38;6.70;97.80
32366;DHT22;18837;46.832;16.838;2023-01-15T02:19:39;6.70;98.20
32366;DHT22;18837;46.832;16.838;2023-01-15T02:22:35;6.70;98.10
32366;DHT22;18837;46.832;16.838;2023-01-15T02:25:37;6.70;98.20
32366;DHT22;18837;46.832;16.838;2023-01-15T02:28:21;6.70;98.20
32366;DHT22;18837;46.832;16.838;2023-01-15T02:30:55;6.70;97.90
32366;DHT22;18837;46.832;16.838;2023-01-15T02:33:30;6.70;97.90
32366;DHT22;18837;46.832;16.838;2023-01-15T02:35:58;6.70;97.90
32366;DHT22;18837;46.832;16.838;2023-01-15T02:38:46;6.70;97.90
32366;DHT22;18837;46.832;16.838;2023-01-15T02:41:35;6.70;97.90
32366;DHT22;18837;46.832;16.838;2023-01-15T02:44:41;6.70;98.00
32366;DHT22;18837;46.832;16.838;2023-01-15T02:47:10;6.70;97.90
32366;DHT22;18837;46.832;16.838;2023-01-15T02:49:38;6.70;97.80
32366;DHT22;18837;46.832;16.838;2023-01-15T02:52:20;6.70;97.90
32366;DHT22;18837;46.832;16.838;2023-01-15T02:54:56;6.70;97.80
32366;DHT22;18837;46.832;16.838;2023-01-15T02:57:25;6.80;97.70
32366;DHT22;18837;46.832;16.838;2023-01-15T02:59:57;6.80;97.70
32366;DHT22;18837;46.832;16.838;2023-01-15T03:02:30;6.70;97.60
32366;DHT22;18837;46.832;16.838;2023-01-15T03:05:05;6.70;97.60
32366;DHT22;18837;46.832;16.838;2023-01-15T03:07:56;6.70;97.80
32366;DHT22;18837;46.832;16.838;2023-01-15T03:10:41;6.70;98.00
32366;DHT22;18837;46.832;16.838;2023-01-15T03:14:13;6.70;98.20
32366;DHT22;18837;46.832;16.838;2023-01-15T03:20:13;6.70;98.10
32366;DHT22;18837;46.832;16.838;2023-01-15T03:22:44;6.60;97.80
32366;DHT22;18837;46.832;16.838;2023-01-15T03:25:12;6.60;97.80
32366;DHT22;18837;46.832;16.838;2023-01-15T03:27:41;6.60;97.70
32366;DHT22;18837;46.832;16.838;2023-01-15T03:30:12;6.60;97.80
32366;DHT22;18837;46.832;16.838;2023-01-15T03:32:57;6.60;98.00
32366;DHT22;18837;46.832;16.838;2023-01-15T03:38:21;6.60;98.30
32366;DHT22;18837;46.832;16.838;2023-01-15T03:46:12;6.60;98.10
32366;DHT22;18837;46.832;16.838;2023-01-15T03:55:35;6.60;98.10
32366;DHT22;18837;46.832;16.838;2023-01-15T04:00:42;6.60;98.10
32366;DHT22;18837;46.832;16.838;2023-01-15T04:03:10;6.60;97.70
32366;DHT22;18837;46.832;16.838;2023-01-15T04:05:37;6.60;97.70
32366;DHT22;18837;46.832;16.838;2023-01-15T04:08:08;6.60;97.60
32366;DHT22;18837;46.832;16.838;2023-01-15T04:10:34;6.60;97.70
32366;DHT22;18837;46.832;16.838;2023-01-15T04:13:00;6.60;97.60
32366;DHT22;18837;46.832;16.838;2023-01-15T04:15:26;6.60;97.60
32366;DHT22;18837;46.832;16.838;2023-01-15T04:17:51;6.60;97.60
32366;DHT22;18837;46.832;16.838;2023-01-15T04:20:17;6.60;97.80
32366;DHT22;18837;46.832;16.838;2023-01-15T04:23:08;6.60;97.80
32366;DHT22;18837;46.832;16.838;2023-01-15T04:25:52;6.60;98.00
32366;DHT22;18837;46.832;16.838;2023-01-15T04:28:18;6.50;97.70
32366;DHT22;18837;46.832;16.838;2023-01-15T04:30:44;6.60;97.70
32366;DHT22;18837;46.832;16.838;2023-01-15T04:33:10;6.50;97.50
32366;DHT22;18837;46.832;16.838;2023-01-15T04:35:36;6.50;97.60
32366;DHT22;18837;46.832;16.838;2023-01-15T04:38:02;6.50;97.60
32366;DHT22;18837;46.832;16.838;2023-01-15T04:40:28;6.50;97.60
32366;DHT22;18837;46.832;16.838;2023-01-15T04:43:18;6.50;98.00
32366;DHT22;18837;46.832;16.838;2023-01-15T04:46:23;6.50;97.90
32366;DHT22;18837;46.832;16.838;2023-01-15T04:48:49;6.50;97.70
32366;DHT22;18837;46.832;16.838;2023-01-15T04:51:16;6.50;97.70
32366;DHT22;18837;46.832;16.838;2023-01-15T04:53:42;6.50;97.70
32366;DHT22;18837;46.832;16.838;2023-01-15T04:56:07;6.50;97.80
32366;DHT22;18837;46.832;16.838;2023-01-15T05:01:57;6.50;98.00
32366;DHT22;18837;46.832;16.838;2023-01-15T05:04:23;6.50;97.70
32366;DHT22;18837;46.832;16.838;2023-01-15T05:06:48;6.50;97.60
32366;DHT22;18837;46.832;16.838;2023-01-15T05:09:14;6.50;97.70
32366;DHT22;18837;46.832;16.838;2023-01-15T05:11:40;6.50;97.50
32366;DHT22;18837;46.832;16.838;2023-01-15T05:14:06;6.50;97.60
32366;DHT22;18837;46.832;16.838;2023-01-15T05:16:44;6.50;97.70
32366;DHT22;18837;46.832;16.838;2023-01-15T05:19:10;6.50;97.60
32366;DHT22;18837;46.832;16.838;2023-01-15T05:24:15;6.50;98.00
32366;DHT22;18837;46.832;16.838;2023-01-15T05:26:42;6.50;97.60
32366;DHT22;18837;46.832;16.838;2023-01-15T05:29:10;6.50;97.70
32366;DHT22;18837;46.832;16.838;2023-01-15T05:31:45;6.50;97.70
32366;DHT22;18837;46.832;16.838;2023-01-15T05:34:41;6.50;97.70
32366;DHT22;18837;46.832;16.838;2023-01-15T05:37:08;6.50;97.80
32366;DHT22;18837;46.832;16.838;2023-01-15T05:39:35;6.50;97.70
32366;DHT22;18837;46.832;16.838;2023-01-15T05:42:00;6.50;97.50
32366;DHT22;18837;46.832;16.838;2023-01-15T05:44:28;6.50;97.60
32366;DHT22;18837;46.832;16.838;2023-01-15T05:46:57;6.50;97.50
32366;DHT22;18837;46.832;16.838;2023-01-15T05:49:26;6.50;97.60
32366;DHT22;18837;46.832;16.838;2023-01-15T05:52:01;6.50;97.50
32366;DHT22;18837;46.832;16.838;2023-01-15T05:54:29;6.50;97.50
32366;DHT22;18837;46.832;16.838;2023-01-15T05:56:55;6.50;97.50
32366;DHT22;18837;46.832;16.838;2023-01-15T05:59:23;6.50;97.70
32366;DHT22;18837;46.832;16.838;2023-01-15T06:01:50;6.50;97.50
32366;DHT22;18837;46.832;16.838;2023-01-15T06:04:16;6.40;97.50
32366;DHT22;18837;46.832;16.838;2023-01-15T06:07:05;6.50;97.60
32366;DHT22;18837;46.832;16.838;2023-01-15T06:09:55;6.50;97.80
32366;DHT22;18837;46.832;16.838;2023-01-15T06:12:27;6.30;97.60
32366;DHT22;18837;46.832;16.838;2023-01-15T06:14:53;6.40;97.50
32366;DHT22;18837;46.832;16.838;2023-01-15T06:17:19;6.40;97.40
32366;DHT22;18837;46.832;16.838;2023-01-15T06:19:44;6.40;97.40
32366;DHT22;18837;46.832;16.838;2023-01-15T06:22:10;6.40;97.50
32366;DHT22;18837;46.832;16.838;2023-01-15T06:24:36;6.40;97.50
32366;DHT22;18837;46.832;16.838;2023-01-15T06:27:11;6.40;97.50
32366;DHT22;18837;46.832;16.838;2023-01-15T06:29:37;6.40;97.50
32366;DHT22;18837;46.832;16.838;2023-01-15T06:32:02;6.40;97.40
32366;DHT22;18837;46.832;16.838;2023-01-15T06:34:28;6.40;97.50
32366;DHT22;18837;46.832;16.838;2023-01-15T06:36:54;6.40;97.30
32366;DHT22;18837;46.832;16.838;2023-01-15T06:39:20;6.40;97.40
32366;DHT22;18837;46.832;16.838;2023-01-15T06:45:27;6.40;97.80
32366;DHT22;18837;46.832;16.838;2023-01-15T06:48:13;6.40;97.50
32366;DHT22;18837;46.832;16.838;2023-01-15T06:50:39;6.40;97.40
32366;DHT22;18837;46.832;16.838;2023-01-15T06:53:05;6.40;97.50
32366;DHT22;18837;46.832;16.838;2023-01-15T06:55:31;6.40;97.40
32366;DHT22;18837;46.832;16.838;2023-01-15T06:57:57;6.40;97.70
32366;DHT22;18837;46.832;16.838;2023-01-15T07:00:28;6.40;97.50
32366;DHT22;18837;46.832;16.838;2023-01-15T07:02:54;6.40;97.30
32366;DHT22;18837;46.832;16.838;2023-01-15T07:05:20;6.40;97.30
32366;DHT22;18837;46.832;16.838;2023-01-15T07:07:46;6.40;97.20
32366;DHT22;18837;46.832;16.838;2023-01-15T07:10:11;6.30;97.30
32366;DHT22;18837;46.832;16.838;2023-01-15T07:12:38;6.30;97.30
32366;DHT22;18837;46.832;16.838;2023-01-15T07:18:38;6.30;97.80
32366;DHT22;18837;46.832;16.838;2023-01-15T07:21:15;6.40;97.80
32366;DHT22;18837;46.832;16.838;2023-01-15T07:23:41;6.40;97.40
32366;DHT22;18837;46.832;16.838;2023-01-15T07:26:07;6.30;97.40
32366;DHT22;18837;46.832;16.838;2023-01-15T07:28:32;6.30;97.50
32366;DHT22;18837;46.832;16.838;2023-01-15T07:30:58;6.30;97.40
32366;DHT22;18837;46.832;16.838;2023-01-15T07:33:24;6.30;97.40
32366;DHT22;18837;46.832;16.838;2023-01-15T07:36:03;6.30;97.30
32366;DHT22;18837;46.832;16.838;2023-01-15T07:38:28;6.30;97.50
32366;DHT22;18837;46.832;16.838;2023-01-15T07:40:58;6.30;97.30
32366;DHT22;18837;46.832;16.838;2023-01-15T07:43:42;6.30;97.50
32366;DHT22;18837;46.832;16.838;2023-01-15T07:46:28;6.30;97.30
32366;DHT22;18837;46.832;16.838;2023-01-15T07:49:12;6.30;97.40
32366;DHT22;18837;46.832;16.838;2023-01-15T07:51:57;6.30;97.40
32366;DHT22;18837;46.832;16.838;2023-01-15T07:54:24;6.30;97.50
32366;DHT22;18837;46.832;16.838;2023-01-15T07:56:51;6.30;97.40
32366;DHT22;18837;46.832;16.838;2023-01-15T07:59:17;6.30;97.40
32366;DHT22;18837;46.832;16.838;2023-01-15T08:01:43;6.30;97.10
32366;DHT22;18837;46.832;16.838;2023-01-15T08:04:09;6.30;97.50
32366;DHT22;18837;46.832;16.838;2023-01-15T08:06:35;6.30;97.90
32366;DHT22;18837;46.832;16.838;2023-01-15T08:09:02;6.40;97.50
32366;DHT22;18837;46.832;16.838;2023-01-15T08:11:27;6.30;97.30
32366;DHT22;18837;46.832;16.838;2023-01-15T08:14:12;6.30;97.70
32366;DHT22;18837;46.832;16.838;2023-01-15T08:16:56;6.30;97.50
32366;DHT22;18837;46.832;16.838;2023-01-15T08:19:21;6.30;97.30
32366;DHT22;18837;46.832;16.838;2023-01-15T08:21:52;6.20;97.30
32366;DHT22;18837;46.832;16.838;2023-01-15T08:24:30;6.30;97.40
32366;DHT22;18837;46.832;16.838;2023-01-15T08:26:56;6.20;97.40
32366;DHT22;18837;46.832;16.838;2023-01-15T08:29:22;6.20;97.50
32366;DHT22;18837;46.832;16.838;2023-01-15T08:31:47;6.20;97.30
32366;DHT22;18837;46.832;16.838;2023-01-15T08:34:16;6.20;97.60
32366;DHT22;18837;46.832;16.838;2023-01-15T08:36:44;6.20;97.50
32366;DHT22;18837;46.832;16.838;2023-01-15T08:39:31;6.20;97.60
32366;DHT22;18837;46.832;16.838;2023-01-15T08:42:13;6.20;97.80
32366;DHT22;18837;46.832;16.838;2023-01-15T08:44:57;6.20;97.50
32366;DHT22;18837;46.832;16.838;2023-01-15T08:47:23;6.20;97.40
32366;DHT22;18837;46.832;16.838;2023-01-15T08:49:49;6.20;97.40
32366;DHT22;18837;46.832;16.838;2023-01-15T08:52:15;6.20;97.60
32366;DHT22;18837;46.832;16.838;2023-01-15T08:54:41;6.30;97.50
32366;DHT22;18837;46.832;16.838;2023-01-15T08:57:07;6.20;97.40
32366;DHT22;18837;46.832;16.838;2023-01-15T08:59:40;6.30;97.40
32366;DHT22;18837;46.832;16.838;2023-01-15T09:02:13;6.30;97.40
32366;DHT22;18837;46.832;16.838;2023-01-15T09:04:39;6.30;97.70
32366;DHT22;18837;46.832;16.838;2023-01-15T09:07:05;6.40;97.00
32366;DHT22;18837;46.832;16.838;2023-01-15T09:09:32;6.40;96.70
32366;DHT22;18837;46.832;16.838;2023-01-15T09:11:58;6.40;97.10
32366;DHT22;18837;46.832;16.838;2023-01-15T09:14:48;6.40;96.90
32366;DHT22;18837;46.832;16.838;2023-01-15T09:20:46;6.30;97.50
32366;DHT22;18837;46.832;16.838;2023-01-15T09:25:55;6.40;97.70
32366;DHT22;18837;46.832;16.838;2023-01-15T09:28:21;6.40;97.40
32366;DHT22;18837;46.832;16.838;2023-01-15T09:30:47;6.40;97.20
32366;DHT22;18837;46.832;16.838;2023-01-15T09:33:32;6.40;97.30
32366;DHT22;18837;46.832;16.838;2023-01-15T09:35:58;6.30;97.00
32366;DHT22;18837;46.832;16.838;2023-01-15T09:38:24;6.40;96.80
32366;DHT22;18837;46.832;16.838;2023-01-15T09:40:56;6.40;97.40
32366;DHT22;18837;46.832;16.838;2023-01-15T09:43:45;6.40;97.40
32366;DHT22;18837;46.832;16.838;2023-01-15T09:46:20;6.40;97.10
32366;DHT22;18837;46.832;16.838;2023-01-15T09:55:31;6.40;96.50
32366;DHT22;18837;46.832;16.838;2023-01-15T09:57:59;6.40;96.50
32366;DHT22;18837;46.832;16.838;2023-01-15T10:00:32;6.40;96.70
32366;DHT22;18837;46.832;16.838;2023-01-15T10:09:05;6.60;96.10
32366;DHT22;18837;46.832;16.838;2023-01-15T10:11:41;6.70;96.50
32366;DHT22;18837;46.832;16.838;2023-01-15T10:14:39;6.70;95.90
32366;DHT22;18837;46.832;16.838;2023-01-15T10:17:20;6.70;95.90
32366;DHT22;18837;46.832;16.838;2023-01-15T10:19:47;6.70;95.80
32366;DHT22;18837;46.832;16.838;2023-01-15T10:22:36;6.70;95.40
32366;DHT22;18837;46.832;16.838;2023-01-15T10:25:24;6.70;96.20
32366;DHT22;18837;46.832;16.838;2023-01-15T10:27:51;6.70;95.20
32366;DHT22;18837;46.832;16.838;2023-01-15T10:30:46;6.70;95.30
32366;DHT22;18837;46.832;16.838;2023-01-15T10:41:26;6.60;95.80
32366;DHT22;18837;46.832;16.838;2023-01-15T10:44:14;6.60;96.30
32366;DHT22;18837;46.832;16.838;2023-01-15T10:46:47;6.60;95.70
32366;DHT22;18837;46.832;16.838;2023-01-15T10:49:16;6.70;95.60
32366;DHT22;18837;46.832;16.838;2023-01-15T10:52:06;6.70;95.80
32366;DHT22;18837;46.832;16.838;2023-01-15T10:54:44;6.70;96.30
32366;DHT22;18837;46.832;16.838;2023-01-15T11:00:42;6.70;96.50
32366;DHT22;18837;46.832;16.838;2023-01-15T11:03:40;6.80;96.40
32366;DHT22;18837;46.832;16.838;2023-01-15T11:06:14;6.80;96.20
32366;DHT22;18837;46.832;16.838;2023-01-15T11:09:03;6.90;96.40
32366;DHT22;18837;46.832;16.838;2023-01-15T11:11:50;7.00;95.70
32366;DHT22;18837;46.832;16.838;2023-01-15T11:14:42;7.00;95.30
32366;DHT22;18837;46.832;16.838;2023-01-15T11:17:45;7.00;95.70
32366;DHT22;18837;46.832;16.838;2023-01-15T11:20:44;7.00;95.10
32366;DHT22;18837;46.832;16.838;2023-01-15T11:23:13;7.00;95.40
32366;DHT22;18837;46.832;16.838;2023-01-15T11:25:48;7.00;94.70
32366;DHT22;18837;46.832;16.838;2023-01-15T11:28:15;6.90;94.60
32366;DHT22;18837;46.832;16.838;2023-01-15T11:30:42;6.90;94.80
32366;DHT22;18837;46.832;16.838;2023-01-15T11:33:27;6.90;95.00
32366;DHT22;18837;46.832;16.838;2023-01-15T11:36:29;6.90;94.70
32366;DHT22;18837;46.832;16.838;2023-01-15T11:38:53;6.90;94.90
32366;DHT22;18837;46.832;16.838;2023-01-15T11:41:28;6.90;95.10
32366;DHT22;18837;46.832;16.838;2023-01-15T11:44:14;6.90;95.10
32366;DHT22;18837;46.832;16.838;2023-01-15T11:46:58;6.90;95.20
32366;DHT22;18837;46.832;16.838;2023-01-15T11:49:53;6.90;94.80
32366;DHT22;18837;46.832;16.838;2023-01-15T11:52:53;7.00;94.60
32366;DHT22;18837;46.832;16.838;2023-01-15T11:55:22;7.10;94.60
32366;DHT22;18837;46.832;16.838;2023-01-15T11:57:50;7.10;94.90
32366;DHT22;18837;46.832;16.838;2023-01-15T12:00:27;7.20;94.70
32366;DHT22;18837;46.832;16.838;2023-01-15T12:02:58;7.30;95.10
32366;DHT22;18837;46.832;16.838;2023-01-15T12:05:30;7.30;94.00
32366;DHT22;18837;46.832;16.838;2023-01-15T12:08:08;7.30;93.90
32366;DHT22;18837;46.832;16.838;2023-01-15T12:11:21;7.40;94.00
32366;DHT22;18837;46.832;16.838;2023-01-15T12:24:25;7.30;94.20
32366;DHT22;18837;46.832;16.838;2023-01-15T12:27:28;7.30;95.40
32366;DHT22;18837;46.832;16.838;2023-01-15T12:33:10;7.20;95.40
32366;DHT22;18837;46.832;16.838;2023-01-15T12:35:50;7.20;94.50
32366;DHT22;18837;46.832;16.838;2023-01-15T12:38:40;7.20;95.50
32366;DHT22;18837;46.832;16.838;2023-01-15T12:41:34;7.20;95.70
32366;DHT22;18837;46.832;16.838;2023-01-15T12:47:27;7.10;95.70
32366;DHT22;18837;46.832;16.838;2023-01-15T12:52:40;7.10;95.90
32366;DHT22;18837;46.832;16.838;2023-01-15T12:55:19;7.10;95.20
32366;DHT22;18837;46.832;16.838;2023-01-15T12:57:50;7.10;95.10
32366;DHT22;18837;46.832;16.838;2023-01-15T13:00:24;7.10;95.20
32366;DHT22;18837;46.832;16.838;2023-01-15T13:03:23;7.20;95.40
32366;DHT22;18837;46.832;16.838;2023-01-15T13:05:59;7.30;96.40
32366;DHT22;18837;46.832;16.838;2023-01-15T13:08:50;7.40;95.70
32366;DHT22;18837;46.832;16.838;2023-01-15T13:11:19;7.40;95.80
32366;DHT22;18837;46.832;16.838;2023-01-15T13:13:45;7.50;95.70
32366;DHT22;18837;46.832;16.838;2023-01-15T13:17:01;7.50;95.80
32366;DHT22;18837;46.832;16.838;2023-01-15T13:20:11;7.50;96.30
32366;DHT22;18837;46.832;16.838;2023-01-15T13:22:26;7.50;96.10
32366;DHT22;18837;46.832;16.838;2023-01-15T13:39:47;7.30;96.20
32366;DHT22;18837;46.832;16.838;2023-01-15T13:42:22;7.30;96.00
32366;DHT22;18837;46.832;16.838;2023-01-15T13:47:42;7.20;96.30
32366;DHT22;18837;46.832;16.838;2023-01-15T13:50:31;7.30;95.50
32366;DHT22;18837;46.832;16.838;2023-01-15T13:53:15;7.20;95.50
32366;DHT22;18837;46.832;16.838;2023-01-15T13:55:49;7.20;95.50
32366;DHT22;18837;46.832;16.838;2023-01-15T13:58:25;7.20;95.70
32366;DHT22;18837;46.832;16.838;2023-01-15T14:03:36;7.20;96.40
32366;DHT22;18837;46.832;16.838;2023-01-15T14:06:55;7.20;96.00
32366;DHT22;18837;46.832;16.838;2023-01-15T14:09:34;7.30;96.50
32366;DHT22;18837;46.832;16.838;2023-01-15T14:18:17;7.50;96.00
32366;DHT22;18837;46.832;16.838;2023-01-15T14:34:22;7.30;96.70
32366;DHT22;18837;46.832;16.838;2023-01-15T14:40:02;7.30;96.70
32366;DHT22;18837;46.832;16.838;2023-01-15T14:42:50;7.20;96.50
32366;DHT22;18837;46.832;16.838;2023-01-15T14:45:40;7.20;96.50
32366;DHT22;18837;46.832;16.838;2023-01-15T14:48:20;7.20;96.10
32366;DHT22;18837;46.832;16.838;2023-01-15T14:51:26;7.20;96.30
32366;DHT22;18837;46.832;16.838;2023-01-15T14:54:08;7.20;96.30
32366;DHT22;18837;46.832;16.838;2023-01-15T14:56:40;7.10;96.70
32366;DHT22;18837;46.832;16.838;2023-01-15T14:59:47;7.10;96.20
32366;DHT22;18837;46.832;16.838;2023-01-15T15:02:21;7.10;96.70
32366;DHT22;18837;46.832;16.838;2023-01-15T15:07:33;7.20;96.60
32366;DHT22;18837;46.832;16.838;2023-01-15T15:13:08;7.30;96.50
32366;DHT22;18837;46.832;16.838;2023-01-15T15:19:15;7.40;96.60
32366;DHT22;18837;46.832;16.838;2023-01-15T15:21:45;7.40;96.60
32366;DHT22;18837;46.832;16.838;2023-01-15T15:24:22;7.40;96.20
32366;DHT22;18837;46.832;16.838;2023-01-15T15:26:50;7.40;96.70
32366;DHT22;18837;46.832;16.838;2023-01-15T15:29:18;7.30;96.10
32366;DHT22;18837;46.832;16.838;2023-01-15T15:31:56;7.20;96.40
32366;DHT22;18837;46.832;16.838;2023-01-15T15:34:44;7.20;96.60
32366;DHT22;18837;46.832;16.838;2023-01-15T15:39:57;7.20;97.00
32366;DHT22;18837;46.832;16.838;2023-01-15T15:42:37;7.20;96.80
32366;DHT22;18837;46.832;16.838;2023-01-15T15:45:25;7.10;96.70
32366;DHT22;18837;46.832;16.838;2023-01-15T15:48:34;7.10;96.70
32366;DHT22;18837;46.832;16.838;2023-01-15T15:54:29;7.10;96.70
32366;DHT22;18837;46.832;16.838;2023-01-15T15:57:20;7.10;96.50
32366;DHT22;18837;46.832;16.838;2023-01-15T15:59:49;7.10;96.70
32366;DHT22;18837;46.832;16.838;2023-01-15T16:02:26;7.00;96.60
32366;DHT22;18837;46.832;16.838;2023-01-15T16:04:57;7.00;97.00
32366;DHT22;18837;46.832;16.838;2023-01-15T16:07:33;7.10;96.80
32366;DHT22;18837;46.832;16.838;2023-01-15T16:10:14;7.10;96.80
32366;DHT22;18837;46.832;16.838;2023-01-15T16:12:50;7.20;96.80
32366;DHT22;18837;46.832;16.838;2023-01-15T16:15:43;7.20;96.90
32366;DHT22;18837;46.832;16.838;2023-01-15T16:18:34;7.30;96.60
32366;DHT22;18837;46.832;16.838;2023-01-15T16:21:03;7.40;97.00
32366;DHT22;18837;46.832;16.838;2023-01-15T16:23:54;7.30;96.60
32366;DHT22;18837;46.832;16.838;2023-01-15T16:27:04;7.30;96.60
32366;DHT22;18837;46.832;16.838;2023-01-15T16:29:36;7.30;96.70
32366;DHT22;18837;46.832;16.838;2023-01-15T16:32:10;7.30;96.50
32366;DHT22;18837;46.832;16.838;2023-01-15T16:34:39;7.20;96.50
32366;DHT22;18837;46.832;16.838;2023-01-15T16:37:27;7.20;96.50
32366;DHT22;18837;46.832;16.838;2023-01-15T16:39:58;7.20;96.90
32366;DHT22;18837;46.832;16.838;2023-01-15T16:42:38;7.10;96.80
32366;DHT22;18837;46.832;16.838;2023-01-15T16:45:25;7.10;96.70
32366;DHT22;18837;46.832;16.838;2023-01-15T16:50:34;7.10;97.00
32366;DHT22;18837;46.832;16.838;2023-01-15T16:53:02;7.00;96.90
32366;DHT22;18837;46.832;16.838;2023-01-15T16:55:40;7.00;96.90
32366;DHT22;18837;46.832;16.838;2023-01-15T16:58:15;7.00;96.90
32366;DHT22;18837;46.832;16.838;2023-01-15T17:00:44;7.00;97.10
32366;DHT22;18837;46.832;16.838;2023-01-15T17:03:15;7.00;97.10
32366;DHT22;18837;46.832;16.838;2023-01-15T17:05:42;7.00;97.10
32366;DHT22;18837;46.832;16.838;2023-01-15T17:08:19;7.00;97.20
32366;DHT22;18837;46.832;16.838;2023-01-15T17:10:54;7.00;97.10
32366;DHT22;18837;46.832;16.838;2023-01-15T17:13:35;7.10;97.00
32366;DHT22;18837;46.832;16.838;2023-01-15T17:16:20;7.10;97.00
32366;DHT22;18837;46.832;16.838;2023-01-15T17:18:48;7.20;97.10
32366;DHT22;18837;46.832;16.838;2023-01-15T17:21:20;7.20;97.00
32366;DHT22;18837;46.832;16.838;2023-01-15T17:23:48;7.20;97.00
32366;DHT22;18837;46.832;16.838;2023-01-15T17:26:25;7.20;96.90
32366;DHT22;18837;46.832;16.838;2023-01-15T17:29:23;7.20;97.00
32366;DHT22;18837;46.832;16.838;2023-01-15T17:32:01;7.10;97.10
32366;DHT22;18837;46.832;16.838;2023-01-15T17:34:26;7.10;97.10
32366;DHT22;18837;46.832;16.838;2023-01-15T17:36:52;7.10;97.20
32366;DHT22;18837;46.832;16.838;2023-01-15T17:39:18;7.00;97.10
32366;DHT22;18837;46.832;16.838;2023-01-15T17:41:44;7.00;96.80
32366;DHT22;18837;46.832;16.838;2023-01-15T17:44:10;7.00;97.30
32366;DHT22;18837;46.832;16.838;2023-01-15T17:47:00;7.00;97.00
32366;DHT22;18837;46.832;16.838;2023-01-15T17:49:25;7.00;97.50
32366;DHT22;18837;46.832;16.838;2023-01-15T17:51:51;6.90;97.20
32366;DHT22;18837;46.832;16.838;2023-01-15T17:54:17;7.00;97.50
32366;DHT22;18837;46.832;16.838;2023-01-15T17:57:03;6.90;97.30
32366;DHT22;18837;46.832;16.838;2023-01-15T17:59:47;7.00;97.60
32366;DHT22;18837;46.832;16.838;2023-01-15T18:02:51;6.90;97.50
32366;DHT22;18837;46.832;16.838;2023-01-15T18:06:13;6.90;97.50
32366;DHT22;18837;46.832;16.838;2023-01-15T18:08:48;6.90;97.40
32366;DHT22;18837;46.832;16.838;2023-01-15T18:11:16;7.00;97.70
32366;DHT22;18837;46.832;16.838;2023-01-15T18:13:42;7.00;96.70
32366;DHT22;18837;46.832;16.838;2023-01-15T18:16:09;7.00;97.20
32366;DHT22;18837;46.832;16.838;2023-01-15T18:18:36;7.10;97.20
32366;DHT22;18837;46.832;16.838;2023-01-15T18:21:02;7.10;97.20
32366;DHT22;18837;46.832;16.838;2023-01-15T18:23:28;7.10;97.10
32366;DHT22;18837;46.832;16.838;2023-01-15T18:25:55;7.10;96.90
32366;DHT22;18837;46.832;16.838;2023-01-15T18:28:21;7.10;96.70
32366;DHT22;18837;46.832;16.838;2023-01-15T18:30:47;7.10;97.10
32366;DHT22;18837;46.832;16.838;2023-01-15T18:33:13;7.10;97.40
32366;DHT22;18837;46.832;16.838;2023-01-15T18:35:39;7.10;97.20
32366;DHT22;18837;46.832;16.838;2023-01-15T18:38:06;7.00;97.40
32366;DHT22;18837;46.832;16.838;2023-01-15T18:40:32;7.00;97.50
32366;DHT22;18837;46.832;16.838;2023-01-15T18:43:00;7.00;97.40
32366;DHT22;18837;46.832;16.838;2023-01-15T18:45:45;7.00;97.60
32366;DHT22;18837;46.832;16.838;2023-01-15T18:48:30;7.00;97.40